Climatologie pour Saint-Brevin les Pins
Jour • Résumé pour juillet 4, 2017 Système :  Métrique    Anglais   Mixte
« - 1 jour
+ 1 jour »
Jour Semaine Mois Année Personnalisé
  Maximum : Minimum : Moyenne :
Température sous abri : 27.5 °C 11.1 °C 20.6 °C
Point de rosée : 19.2 °C 10.6 °C 15.2 °C
Humidité : 98 % 49 % 74 %
Vitesse du vent : 14.5 km/h 0.0 km/h 3.2 km/h
Rafale : 19.3 km/h - -
Direction :- - South
Pression : 1022.6 hPa 1014.8 hPa -
Précipitations : 0.0 mm    
Historical Graphs
 
 
Tableau de données pour juillet 4, 2017
Heure Tempé Pt rosée Pression Vent Vitesse Rafale Humidité Taux pluie (/hr) Soleil
00:00 14.3 °C 13.3 °C 1022.6 hPa WNW 4.8 km/h 4.8 km/h 94 % 0.0 mm 0 W/m2
00:10 14.1 °C 13.2 °C 1022.6 hPa Calm   6.4 km/h 94 % 0.0 mm 0 W/m2
00:15 14.0 °C 13.0 °C 1022.6 hPa WNW 4.8 km/h 4.8 km/h 94 % 0.0 mm 0 W/m2
00:20 13.9 °C 13.2 °C 1022.6 hPa Calm   4.8 km/h 95 % 0.0 mm 0 W/m2
00:25 13.9 °C 13.2 °C 1022.6 hPa Calm   4.8 km/h 95 % 0.0 mm 0 W/m2
00:30 13.8 °C 13.0 °C 1022.6 hPa Calm   6.4 km/h 95 % 0.0 mm 0 W/m2
00:35 13.8 °C 13.0 °C 1022.6 hPa Calm   6.4 km/h 95 % 0.0 mm 0 W/m2
00:40 13.7 °C 12.9 °C 1022.6 hPa WNW 3.2 km/h 4.8 km/h 95 % 0.0 mm 0 W/m2
00:45 13.8 °C 13.2 °C 1022.6 hPa Calm   3.2 km/h 96 % 0.0 mm 0 W/m2
00:50 13.8 °C 13.2 °C 1022.6 hPa Calm   3.2 km/h 96 % 0.0 mm 0 W/m2
00:55 13.7 °C 13.1 °C 1022.6 hPa Calm   1.6 km/h 96 % 0.0 mm 0 W/m2
01:00 13.7 °C 13.1 °C 1022.6 hPa Calm     96 % 0.0 mm 0 W/m2
01:05 13.7 °C 13.1 °C 1022.6 hPa Calm     96 % 0.0 mm 0 W/m2
01:10 13.6 °C 13.0 °C 1022.6 hPa Calm     96 % 0.0 mm 0 W/m2
01:15 13.5 °C 12.9 °C 1022.6 hPa Calm     96 % 0.0 mm 0 W/m2
01:20 13.4 °C 12.8 °C 1022.6 hPa Calm     96 % 0.0 mm 0 W/m2
01:25 13.4 °C 12.8 °C 1022.6 hPa Calm     96 % 0.0 mm 0 W/m2
01:35 13.4 °C 12.8 °C 1022.6 hPa Calm   1.6 km/h 96 % 0.0 mm 0 W/m2
01:40 13.4 °C 12.8 °C 1022.6 hPa Calm   1.6 km/h 96 % 0.0 mm 0 W/m2
01:45 13.5 °C 12.9 °C 1022.2 hPa Calm     96 % 0.0 mm 0 W/m2
01:50 13.4 °C 12.8 °C 1022.2 hPa Calm     96 % 0.0 mm 0 W/m2
01:55 13.3 °C 12.7 °C 1022.2 hPa Calm   1.6 km/h 96 % 0.0 mm 0 W/m2
02:00 13.3 °C 12.7 °C 1022.2 hPa Calm   1.6 km/h 96 % 0.0 mm 0 W/m2
02:05 13.3 °C 12.7 °C 1022.2 hPa Calm   1.6 km/h 96 % 0.0 mm 0 W/m2
02:10 13.3 °C 12.7 °C 1022.2 hPa Calm   1.6 km/h 96 % 0.0 mm 0 W/m2
02:15 13.1 °C 12.5 °C 1022.2 hPa Calm     96 % 0.0 mm 0 W/m2
02:20 12.9 °C 12.3 °C 1022.2 hPa Calm     96 % 0.0 mm 0 W/m2
02:25 13.0 °C 12.4 °C 1022.2 hPa Calm     96 % 0.0 mm 0 W/m2
02:30 12.8 °C 12.2 °C 1022.2 hPa Calm     96 % 0.0 mm 0 W/m2
02:35 12.6 °C 12.0 °C 1021.9 hPa Calm     96 % 0.0 mm 0 W/m2
02:40 12.6 °C 11.9 °C 1021.9 hPa Calm     96 % 0.0 mm 0 W/m2
02:45 12.4 °C 11.8 °C 1021.9 hPa Calm     96 % 0.0 mm 0 W/m2
02:50 12.3 °C 11.7 °C 1021.9 hPa Calm     96 % 0.0 mm 0 W/m2
02:55 12.2 °C 11.6 °C 1021.9 hPa Calm     96 % 0.0 mm 0 W/m2
03:00 12.1 °C 11.5 °C 1021.9 hPa Calm     96 % 0.0 mm 0 W/m2
03:05 12.1 °C 11.5 °C 1021.9 hPa Calm     96 % 0.0 mm 0 W/m2
03:10 11.9 °C 11.3 °C 1021.9 hPa Calm     96 % 0.0 mm 0 W/m2
03:15 11.9 °C 11.5 °C 1021.9 hPa Calm     97 % 0.0 mm 0 W/m2
03:20 11.9 °C 11.3 °C 1021.9 hPa Calm     96 % 0.0 mm 0 W/m2
03:25 11.8 °C 11.2 °C 1021.9 hPa Calm     96 % 0.0 mm 0 W/m2
03:30 11.8 °C 11.4 °C 1021.9 hPa Calm     97 % 0.0 mm 0 W/m2
03:35 11.7 °C 11.1 °C 1021.9 hPa Calm     96 % 0.0 mm 0 W/m2
03:40 11.7 °C 11.3 °C 1021.6 hPa Calm     97 % 0.0 mm 0 W/m2
03:45 11.8 °C 11.4 °C 1021.6 hPa Calm     97 % 0.0 mm 0 W/m2
03:50 11.7 °C 11.1 °C 1021.6 hPa Calm     96 % 0.0 mm 0 W/m2
03:55 11.7 °C 11.3 °C 1021.6 hPa Calm     97 % 0.0 mm 0 W/m2
04:00 11.7 °C 11.3 °C 1021.6 hPa Calm   1.6 km/h 97 % 0.0 mm 0 W/m2
04:05 11.6 °C 11.2 °C 1021.6 hPa Calm   1.6 km/h 97 % 0.0 mm 0 W/m2
04:10 11.4 °C 11.0 °C 1021.2 hPa Calm     97 % 0.0 mm 0 W/m2
04:15 11.4 °C 10.9 °C 1021.2 hPa Calm     97 % 0.0 mm 0 W/m2
04:20 11.3 °C 10.8 °C 1021.2 hPa Calm     97 % 0.0 mm 0 W/m2
04:25 11.2 °C 10.6 °C 1021.2 hPa Calm     96 % 0.0 mm 0 W/m2
04:30 11.2 °C 10.8 °C 1021.2 hPa Calm     97 % 0.0 mm 0 W/m2
04:35 11.2 °C 10.7 °C 1020.9 hPa Calm     97 % 0.0 mm 0 W/m2
04:40 11.1 °C 10.6 °C 1020.9 hPa NE 1.6 km/h 4.8 km/h 97 % 0.0 mm 0 W/m2
04:45 11.1 °C 10.7 °C 1020.9 hPa Calm   4.8 km/h 97 % 0.0 mm 0 W/m2
04:50 11.1 °C 10.7 °C 1020.9 hPa Calm   3.2 km/h 97 % 0.0 mm 0 W/m2
04:55 11.2 °C 10.8 °C 1020.9 hPa Calm   3.2 km/h 97 % 0.0 mm 0 W/m2
05:00 11.2 °C 10.7 °C 1020.9 hPa Calm   1.6 km/h 97 % 0.0 mm 0 W/m2
05:05 11.3 °C 10.9 °C 1020.9 hPa Calm   3.2 km/h 97 % 0.0 mm 0 W/m2
05:10 11.3 °C 10.8 °C 1020.9 hPa Calm   3.2 km/h 97 % 0.0 mm 0 W/m2
05:20 11.1 °C 10.7 °C 1020.9 hPa Calm   4.8 km/h 97 % 0.0 mm 0 W/m2
05:25 11.3 °C 10.8 °C 1020.5 hPa Calm   3.2 km/h 97 % 0.0 mm 0 W/m2
05:30 11.2 °C 10.8 °C 1020.9 hPa NE 1.6 km/h 3.2 km/h 97 % 0.0 mm 0 W/m2
05:35 11.6 °C 11.3 °C 1020.9 hPa Calm   3.2 km/h 98 % 0.0 mm 0 W/m2
05:40 11.6 °C 11.1 °C 1020.9 hPa Calm   3.2 km/h 97 % 0.0 mm 0 W/m2
05:45 11.7 °C 11.2 °C 1020.5 hPa NE 1.6 km/h 4.8 km/h 97 % 0.0 mm 0 W/m2
05:50 11.8 °C 11.3 °C 1020.5 hPa NE 3.2 km/h 4.8 km/h 97 % 0.0 mm 0 W/m2
05:55 11.8 °C 11.4 °C 1020.5 hPa Calm   4.8 km/h 97 % 0.0 mm 0 W/m2
06:00 12.2 °C 11.9 °C 1020.5 hPa NE 1.6 km/h 4.8 km/h 98 % 0.0 mm 0 W/m2
06:05 12.4 °C 12.1 °C 1020.9 hPa NE 1.6 km/h 4.8 km/h 98 % 0.0 mm 0 W/m2
06:10 12.3 °C 11.9 °C 1020.9 hPa NE 1.6 km/h 4.8 km/h 97 % 0.0 mm 0 W/m2
06:15 12.4 °C 11.9 °C 1020.5 hPa NE 1.6 km/h 6.4 km/h 97 % 0.0 mm 0 W/m2
06:20 12.6 °C 12.1 °C 1020.5 hPa ENE 4.8 km/h 6.4 km/h 97 % 0.0 mm 0 W/m2
06:25 12.7 °C 12.4 °C 1020.5 hPa Calm   6.4 km/h 98 % 0.0 mm 5 W/m2
06:35 12.1 °C 11.6 °C 1020.5 hPa Calm   3.2 km/h 97 % 0.0 mm 9 W/m2
06:40 12.1 °C 11.6 °C 1020.5 hPa Calm   3.2 km/h 97 % 0.0 mm 11 W/m2
06:45 12.2 °C 11.7 °C 1020.5 hPa Calm   3.2 km/h 97 % 0.0 mm 12 W/m2
06:50 12.3 °C 12.0 °C 1020.5 hPa East 3.2 km/h 4.8 km/h 98 % 0.0 mm 14 W/m2
06:55 12.6 °C 12.2 °C 1020.2 hPa Calm   6.4 km/h 98 % 0.0 mm 16 W/m2
07:00 12.7 °C 12.4 °C 1020.2 hPa Calm   6.4 km/h 98 % 0.0 mm 18 W/m2
07:05 12.8 °C 12.5 °C 1020.2 hPa East 3.2 km/h 6.4 km/h 98 % 0.0 mm 19 W/m2
07:10 12.9 °C 12.6 °C 1020.2 hPa Calm   6.4 km/h 98 % 0.0 mm 21 W/m2
07:15 13.0 °C 12.7 °C 1020.2 hPa East 1.6 km/h 4.8 km/h 98 % 0.0 mm 23 W/m2
07:20 13.1 °C 12.8 °C 1020.2 hPa East 3.2 km/h 4.8 km/h 98 % 0.0 mm 23 W/m2
07:25 13.3 °C 13.0 °C 1020.2 hPa East 1.6 km/h 4.8 km/h 98 % 0.0 mm 25 W/m2
07:30 13.4 °C 13.1 °C 1020.2 hPa East 1.6 km/h 8.0 km/h 98 % 0.0 mm 26 W/m2
07:35 13.5 °C 13.2 °C 1020.2 hPa East 1.6 km/h 8.0 km/h 98 % 0.0 mm 28 W/m2
07:40 13.7 °C 13.4 °C 1020.2 hPa East 4.8 km/h 9.7 km/h 98 % 0.0 mm 30 W/m2
07:45 13.8 °C 13.3 °C 1020.2 hPa Calm   9.7 km/h 97 % 0.0 mm 32 W/m2
07:50 13.9 °C 13.6 °C 1020.2 hPa East 3.2 km/h 9.7 km/h 98 % 0.0 mm 32 W/m2
07:55 14.1 °C 13.6 °C 1020.5 hPa East 3.2 km/h 8.0 km/h 97 % 0.0 mm 88 W/m2
08:00 14.2 °C 13.7 °C 1020.5 hPa East 3.2 km/h 11.3 km/h 97 % 0.0 mm 207 W/m2
08:05 14.3 °C 13.9 °C 1020.5 hPa Calm   11.3 km/h 97 % 0.0 mm 223 W/m2
08:10 14.6 °C 14.1 °C 1020.2 hPa ENE 3.2 km/h 9.7 km/h 97 % 0.0 mm 237 W/m2
08:15 14.8 °C 14.3 °C 1020.2 hPa ESE 1.6 km/h 12.9 km/h 97 % 0.0 mm 251 W/m2
08:20 15.0 °C 14.4 °C 1020.2 hPa ENE 3.2 km/h 12.9 km/h 96 % 0.0 mm 265 W/m2
08:25 15.3 °C 14.7 °C 1020.2 hPa East 4.8 km/h 9.7 km/h 96 % 0.0 mm 278 W/m2
08:30 15.6 °C 14.9 °C 1020.2 hPa Calm   9.7 km/h 96 % 0.0 mm 290 W/m2
08:35 15.8 °C 15.0 °C 1020.2 hPa East 4.8 km/h 11.3 km/h 95 % 0.0 mm 306 W/m2
08:40 16.2 °C 15.3 °C 1020.2 hPa East 3.2 km/h 11.3 km/h 94 % 0.0 mm 322 W/m2
08:45 16.6 °C 15.5 °C 1020.2 hPa East 4.8 km/h 11.3 km/h 93 % 0.0 mm 336 W/m2
08:50 16.9 °C 15.6 °C 1020.2 hPa ENE 3.2 km/h 9.7 km/h 92 % 0.0 mm 350 W/m2
08:55 17.3 °C 15.8 °C 1020.2 hPa Calm   8.0 km/h 91 % 0.0 mm 360 W/m2
09:05 18.2 °C 16.1 °C 1020.5 hPa SE 1.6 km/h 8.0 km/h 88 % 0.0 mm 387 W/m2
09:10 18.5 °C 15.9 °C 1020.2 hPa ESE 6.4 km/h 11.3 km/h 85 % 0.0 mm 403 W/m2
09:15 18.7 °C 15.9 °C 1020.2 hPa ESE 1.6 km/h 11.3 km/h 84 % 0.0 mm 418 W/m2
09:20 18.9 °C 15.8 °C 1020.2 hPa SE 4.8 km/h 11.3 km/h 82 % 0.0 mm 432 W/m2
09:25 19.1 °C 15.5 °C 1020.5 hPa SE 6.4 km/h 11.3 km/h 80 % 0.0 mm 446 W/m2
09:30 19.2 °C 15.5 °C 1020.5 hPa SE 4.8 km/h 11.3 km/h 79 % 0.0 mm 459 W/m2
09:35 19.4 °C 15.7 °C 1020.5 hPa SE 4.8 km/h 11.3 km/h 79 % 0.0 mm 471 W/m2
09:40 19.6 °C 16.0 °C 1020.5 hPa SE 4.8 km/h 8.0 km/h 80 % 0.0 mm 485 W/m2
09:45 19.9 °C 15.7 °C 1020.5 hPa Calm   8.0 km/h 77 % 0.0 mm 497 W/m2
09:50 20.0 °C 16.0 °C 1020.5 hPa SSE 4.8 km/h 8.0 km/h 78 % 0.0 mm 513 W/m2
09:55 20.2 °C 15.6 °C 1020.5 hPa SSE 1.6 km/h 6.4 km/h 75 % 0.0 mm 527 W/m2
10:00 20.7 °C 16.3 °C 1020.5 hPa ESE 4.8 km/h 6.4 km/h 76 % 0.0 mm 541 W/m2
10:05 20.7 °C 15.9 °C 1020.5 hPa Calm   8.0 km/h 74 % 0.0 mm 552 W/m2
10:10 20.8 °C 16.0 °C 1020.2 hPa ESE 4.8 km/h 8.0 km/h 74 % 0.0 mm 566 W/m2
10:15 21.3 °C 16.3 °C 1020.5 hPa Calm   8.0 km/h 73 % 0.0 mm 577 W/m2
10:20 21.6 °C 16.6 °C 1020.5 hPa SE 4.8 km/h 8.0 km/h 73 % 0.0 mm 591 W/m2
10:25 21.8 °C 16.5 °C 1020.2 hPa SSE 3.2 km/h 8.0 km/h 72 % 0.0 mm 605 W/m2
10:30 22.6 °C 17.0 °C 1020.2 hPa Calm   8.0 km/h 71 % 0.0 mm 617 W/m2
10:35 22.7 °C 16.2 °C 1020.2 hPa East 3.2 km/h 8.0 km/h 67 % 0.0 mm 629 W/m2
10:40 22.8 °C 16.8 °C 1020.2 hPa East 4.8 km/h 11.3 km/h 69 % 0.0 mm 640 W/m2
10:45 23.3 °C 16.6 °C 1020.2 hPa ESE 4.8 km/h 11.3 km/h 66 % 0.0 mm 652 W/m2
10:50 23.5 °C 16.8 °C 1019.9 hPa Calm   11.3 km/h 66 % 0.0 mm 666 W/m2
10:55 23.6 °C 16.6 °C 1019.9 hPa SSW 6.4 km/h 11.3 km/h 65 % 0.0 mm 671 W/m2
11:00 23.8 °C 16.6 °C 1019.9 hPa SSW 6.4 km/h 11.3 km/h 64 % 0.0 mm 689 W/m2
11:05 24.3 °C 16.8 °C 1019.9 hPa ESE 8.0 km/h 9.7 km/h 63 % 0.0 mm 696 W/m2
11:10 24.4 °C 16.6 °C 1019.5 hPa South 3.2 km/h 11.3 km/h 62 % 0.0 mm 705 W/m2
11:15 24.3 °C 16.8 °C 1019.5 hPa Calm   11.3 km/h 63 % 0.0 mm 719 W/m2
11:20 24.8 °C 16.5 °C 1019.5 hPa East 3.2 km/h 12.9 km/h 60 % 0.0 mm 728 W/m2
11:25 25.0 °C 16.4 °C 1019.5 hPa ESE 4.8 km/h 12.9 km/h 59 % 0.0 mm 742 W/m2
11:30 25.0 °C 16.7 °C 1019.5 hPa South 3.2 km/h 12.9 km/h 60 % 0.0 mm 751 W/m2
11:35 24.9 °C 16.4 °C 1019.5 hPa Calm   12.9 km/h 59 % 0.0 mm 759 W/m2
11:40 25.3 °C 16.5 °C 1019.5 hPa SSW 6.4 km/h 11.3 km/h 58 % 0.0 mm 773 W/m2
11:45 25.3 °C 15.9 °C 1019.5 hPa SSE 3.2 km/h 16.1 km/h 56 % 0.0 mm 779 W/m2
11:50 25.3 °C 15.6 °C 1019.5 hPa Calm   16.1 km/h 55 % 0.0 mm 782 W/m2
11:55 25.3 °C 16.5 °C 1019.5 hPa SE 11.3 km/h 11.3 km/h 58 % 0.0 mm 791 W/m2
12:00 25.8 °C 15.8 °C 1019.5 hPa SE 6.4 km/h 14.5 km/h 54 % 0.0 mm 802 W/m2
12:05 25.7 °C 16.3 °C 1019.2 hPa East 1.6 km/h 14.5 km/h 56 % 0.0 mm 809 W/m2
12:10 26.2 °C 16.5 °C 1019.2 hPa ESE 1.6 km/h 12.9 km/h 55 % 0.0 mm 821 W/m2
12:15 26.7 °C 16.0 °C 1019.2 hPa SSW 8.0 km/h 14.5 km/h 52 % 0.0 mm 828 W/m2
12:20 26.7 °C 16.6 °C 1019.2 hPa ENE 1.6 km/h 14.5 km/h 54 % 0.0 mm 833 W/m2
12:25 26.7 °C 15.1 °C 1019.2 hPa Calm   11.3 km/h 49 % 0.0 mm 844 W/m2
12:30 26.2 °C 15.3 °C 1019.2 hPa ESE 3.2 km/h 11.3 km/h 51 % 0.0 mm 844 W/m2
12:35 26.2 °C 15.5 °C 1019.2 hPa Calm   6.4 km/h 52 % 0.0 mm 870 W/m2
12:40 25.7 °C 17.1 °C 1019.2 hPa WSW 9.7 km/h 14.5 km/h 59 % 0.0 mm 886 W/m2
12:45 26.5 °C 17.8 °C 1019.2 hPa WNW 12.9 km/h 16.1 km/h 59 % 0.0 mm 840 W/m2
12:50 26.1 °C 17.9 °C 1019.2 hPa WNW 4.8 km/h 16.1 km/h 61 % 0.0 mm 828 W/m2
12:55 25.3 °C 18.0 °C 1019.2 hPa WNW 6.4 km/h 11.3 km/h 64 % 0.0 mm 821 W/m2
13:00 25.2 °C 17.2 °C 1018.8 hPa West 6.4 km/h 12.9 km/h 61 % 0.0 mm 740 W/m2
13:05 25.6 °C 18.0 °C 1019.2 hPa WSW 8.0 km/h 12.9 km/h 63 % 0.0 mm 949 W/m2
13:10 25.8 °C 18.0 °C 1018.8 hPa SW 8.0 km/h 12.9 km/h 62 % 0.0 mm 979 W/m2
13:15 25.7 °C 17.9 °C 1018.8 hPa West 1.6 km/h 12.9 km/h 62 % 0.0 mm 956 W/m2
13:20 26.4 °C 18.5 °C 1018.8 hPa WNW 9.7 km/h 12.9 km/h 62 % 0.0 mm 874 W/m2
13:25 26.3 °C 18.2 °C 1018.8 hPa West 11.3 km/h 14.5 km/h 61 % 0.0 mm 849 W/m2
13:30 25.4 °C 17.3 °C 1018.8 hPa West 9.7 km/h 14.5 km/h 61 % 0.0 mm 701 W/m2
13:35 25.5 °C 17.7 °C 1018.5 hPa West 4.8 km/h 11.3 km/h 62 % 0.0 mm 782 W/m2
13:40 25.9 °C 17.6 °C 1018.8 hPa West 9.7 km/h 9.7 km/h 60 % 0.0 mm 867 W/m2
13:45 26.3 °C 17.6 °C 1018.5 hPa NW 9.7 km/h 12.9 km/h 59 % 0.0 mm 972 W/m2
13:50 25.9 °C 17.6 °C 1018.5 hPa Calm   12.9 km/h 60 % 0.0 mm 882 W/m2
13:55 25.2 °C 17.2 °C 1018.5 hPa West 9.7 km/h 14.5 km/h 61 % 0.0 mm 668 W/m2
14:00 24.7 °C 16.9 °C 1018.5 hPa West 3.2 km/h 14.5 km/h 62 % 0.0 mm 543 W/m2
14:05 24.9 °C 16.6 °C 1018.5 hPa WSW 9.7 km/h 11.3 km/h 60 % 0.0 mm 986 W/m2
14:10 26.2 °C 17.8 °C 1018.2 hPa WNW 4.8 km/h 11.3 km/h 60 % 0.0 mm 958 W/m2
14:15 27.1 °C 17.6 °C 1018.2 hPa WNW 6.4 km/h 11.3 km/h 56 % 0.0 mm 918 W/m2
14:20 27.5 °C 18.2 °C 1018.2 hPa WNW 4.8 km/h 11.3 km/h 57 % 0.0 mm 728 W/m2
14:25 26.8 °C 16.7 °C 1018.2 hPa Calm   9.7 km/h 54 % 0.0 mm 452 W/m2
14:30 27.2 °C 16.8 °C 1018.2 hPa NW 6.4 km/h 9.7 km/h 53 % 0.0 mm 751 W/m2
14:35 27.1 °C 17.2 °C 1018.2 hPa WNW 9.7 km/h 12.9 km/h 55 % 0.0 mm 343 W/m2
14:40 25.8 °C 17.5 °C 1018.5 hPa West 11.3 km/h 14.5 km/h 60 % 0.0 mm 367 W/m2
14:45 24.6 °C 17.8 °C 1018.2 hPa WNW 4.8 km/h 14.5 km/h 66 % 0.0 mm 745 W/m2
14:50 25.4 °C 18.6 °C 1018.2 hPa West 4.8 km/h 14.5 km/h 66 % 0.0 mm 817 W/m2
14:55 26.2 °C 17.8 °C 1018.2 hPa West 8.0 km/h 12.9 km/h 60 % 0.0 mm 963 W/m2
15:00 26.2 °C 17.5 °C 1018.2 hPa WSW 6.4 km/h 12.9 km/h 59 % 0.0 mm 933 W/m2
15:05 26.1 °C 17.9 °C 1017.8 hPa WSW 8.0 km/h 11.3 km/h 61 % 0.0 mm 747 W/m2
15:10 25.8 °C 17.7 °C 1017.8 hPa WSW 4.8 km/h 11.3 km/h 61 % 0.0 mm 949 W/m2
15:15 26.3 °C 17.9 °C 1017.8 hPa West 3.2 km/h 9.7 km/h 60 % 0.0 mm 824 W/m2
15:20 26.1 °C 17.9 °C 1017.8 hPa WSW 6.4 km/h 11.3 km/h 61 % 0.0 mm 724 W/m2
15:25 25.7 °C 17.9 °C 1017.8 hPa WSW 6.4 km/h 11.3 km/h 62 % 0.0 mm 881 W/m2
15:30 25.9 °C 17.8 °C 1017.8 hPa West 4.8 km/h 11.3 km/h 61 % 0.0 mm 867 W/m2
15:35 25.9 °C 17.8 °C 1017.8 hPa West 6.4 km/h 14.5 km/h 61 % 0.0 mm 851 W/m2
15:40 25.7 °C 17.9 °C 1017.5 hPa SW 11.3 km/h 14.5 km/h 62 % 0.0 mm 844 W/m2
15:45 25.6 °C 17.5 °C 1017.5 hPa SW 4.8 km/h 14.5 km/h 61 % 0.0 mm 833 W/m2
15:50 25.5 °C 17.7 °C 1017.5 hPa West 4.8 km/h 14.5 km/h 62 % 0.0 mm 826 W/m2
15:55 25.4 °C 17.3 °C 1017.5 hPa WSW 1.6 km/h 14.5 km/h 61 % 0.0 mm 821 W/m2
16:00 25.9 °C 17.8 °C 1017.5 hPa West 8.0 km/h 11.3 km/h 61 % 0.0 mm 816 W/m2
16:05 25.8 °C 17.7 °C 1017.5 hPa West 4.8 km/h 12.9 km/h 61 % 0.0 mm 803 W/m2
16:10 26.9 °C 18.5 °C 1017.5 hPa West 3.2 km/h 12.9 km/h 60 % 0.0 mm 800 W/m2
16:15 26.5 °C 17.3 °C 1017.5 hPa WSW 8.0 km/h 11.3 km/h 57 % 0.0 mm 793 W/m2
16:20 25.3 °C 17.3 °C 1017.5 hPa WSW 6.4 km/h 14.5 km/h 61 % 0.0 mm 780 W/m2
16:25 25.0 °C 17.0 °C 1017.5 hPa WNW 4.8 km/h 14.5 km/h 61 % 0.0 mm 777 W/m2
16:30 26.0 °C 16.8 °C 1017.5 hPa WSW 3.2 km/h 12.9 km/h 57 % 0.0 mm 763 W/m2
16:35 26.2 °C 16.7 °C 1017.2 hPa WSW 4.8 km/h 12.9 km/h 56 % 0.0 mm 761 W/m2
16:40 26.7 °C 16.9 °C 1017.2 hPa West 8.0 km/h 12.9 km/h 55 % 0.0 mm 751 W/m2
16:45 26.8 °C 17.0 °C 1017.2 hPa WSW 8.0 km/h 11.3 km/h 55 % 0.0 mm 738 W/m2
16:50 26.8 °C 17.0 °C 1017.2 hPa West 8.0 km/h 11.3 km/h 55 % 0.0 mm 728 W/m2
16:55 26.3 °C 16.9 °C 1017.2 hPa WSW 6.4 km/h 14.5 km/h 56 % 0.0 mm 719 W/m2
17:00 26.4 °C 17.5 °C 1017.2 hPa West 6.4 km/h 16.1 km/h 58 % 0.0 mm 710 W/m2
17:05 26.8 °C 18.1 °C 1017.2 hPa West 3.2 km/h 16.1 km/h 59 % 0.0 mm 701 W/m2
17:10 26.7 °C 17.8 °C 1016.8 hPa Calm   11.3 km/h 58 % 0.0 mm 691 W/m2
17:15 26.8 °C 17.9 °C 1016.8 hPa West 4.8 km/h 11.3 km/h 58 % 0.0 mm 682 W/m2
17:20 26.7 °C 17.8 °C 1016.8 hPa WNW 6.4 km/h 14.5 km/h 58 % 0.0 mm 663 W/m2
17:25 26.4 °C 18.1 °C 1016.8 hPa West 9.7 km/h 14.5 km/h 60 % 0.0 mm 643 W/m2
17:35 25.7 °C 16.8 °C 1016.5 hPa WNW 8.0 km/h 17.7 km/h 58 % 0.0 mm 635 W/m2
17:40 25.9 °C 16.7 °C 1016.5 hPa NW 4.8 km/h 17.7 km/h 57 % 0.0 mm 621 W/m2
17:45 26.0 °C 16.8 °C 1016.5 hPa West 6.4 km/h 14.5 km/h 57 % 0.0 mm 608 W/m2
17:50 26.8 °C 17.5 °C 1016.5 hPa West 6.4 km/h 11.3 km/h 57 % 0.0 mm 598 W/m2
17:55 27.4 °C 17.3 °C 1016.1 hPa West 4.8 km/h 11.3 km/h 54 % 0.0 mm 584 W/m2
18:00 26.6 °C 16.5 °C 1016.1 hPa WSW 6.4 km/h 12.9 km/h 54 % 0.0 mm 571 W/m2
18:05 26.3 °C 16.5 °C 1016.1 hPa WSW 3.2 km/h 12.9 km/h 55 % 0.0 mm 557 W/m2
18:10 26.7 °C 16.9 °C 1016.1 hPa WSW 14.5 km/h 14.5 km/h 55 % 0.0 mm 541 W/m2
18:15 26.3 °C 16.5 °C 1016.1 hPa West 6.4 km/h 17.7 km/h 55 % 0.0 mm 533 W/m2
18:20 26.4 °C 16.7 °C 1016.1 hPa West 1.6 km/h 17.7 km/h 55 % 0.0 mm 517 W/m2
18:25 26.7 °C 16.9 °C 1016.1 hPa WSW 4.8 km/h 12.9 km/h 55 % 0.0 mm 497 W/m2
18:30 26.3 °C 16.8 °C 1015.8 hPa West 1.6 km/h 12.9 km/h 56 % 0.0 mm 492 W/m2
18:35 26.0 °C 16.8 °C 1015.8 hPa West 4.8 km/h 12.9 km/h 57 % 0.0 mm 478 W/m2
18:40 26.3 °C 16.9 °C 1015.8 hPa WSW 6.4 km/h 9.7 km/h 56 % 0.0 mm 464 W/m2
18:45 26.3 °C 17.4 °C 1015.8 hPa NW 4.8 km/h 9.7 km/h 58 % 0.0 mm 454 W/m2
18:50 26.0 °C 17.6 °C 1015.8 hPa West 6.4 km/h 9.7 km/h 60 % 0.0 mm 438 W/m2
18:55 26.5 °C 18.4 °C 1015.8 hPa WSW 9.7 km/h 9.7 km/h 61 % 0.0 mm 422 W/m2
19:00 26.2 °C 17.3 °C 1015.8 hPa West 4.8 km/h 9.7 km/h 58 % 0.0 mm 406 W/m2
19:05 26.8 °C 17.5 °C 1015.5 hPa Calm   9.7 km/h 57 % 0.0 mm 390 W/m2
19:10 27.2 °C 17.9 °C 1015.5 hPa SSW 9.7 km/h 9.7 km/h 57 % 0.0 mm 359 W/m2
19:15 27.1 °C 18.1 °C 1015.5 hPa West 1.6 km/h 9.7 km/h 58 % 0.0 mm 367 W/m2
19:20 26.8 °C 18.1 °C 1015.5 hPa West 3.2 km/h 9.7 km/h 59 % 0.0 mm 355 W/m2
19:25 26.2 °C 18.1 °C 1015.5 hPa Calm   9.7 km/h 61 % 0.0 mm 323 W/m2
19:30 26.1 °C 18.3 °C 1015.5 hPa WSW 4.8 km/h 8.0 km/h 62 % 0.0 mm 323 W/m2
19:35 26.2 °C 18.1 °C 1015.5 hPa WSW 4.8 km/h 8.0 km/h 61 % 0.0 mm 306 W/m2
19:40 26.4 °C 18.6 °C 1015.1 hPa Calm   8.0 km/h 62 % 0.0 mm 279 W/m2
19:45 26.7 °C 18.8 °C 1015.1 hPa Calm   4.8 km/h 62 % 0.0 mm 258 W/m2
19:50 26.7 °C 18.6 °C 1015.1 hPa WSW 1.6 km/h 4.8 km/h 61 % 0.0 mm 232 W/m2
19:55 26.6 °C 18.7 °C 1015.1 hPa Calm   3.2 km/h 62 % 0.0 mm 211 W/m2
20:00 26.8 °C 18.6 °C 1015.1 hPa Calm   3.2 km/h 61 % 0.0 mm 193 W/m2
20:05 27.1 °C 18.6 °C 1015.1 hPa SW 1.6 km/h 4.8 km/h 60 % 0.0 mm 183 W/m2
20:10 26.7 °C 18.8 °C 1015.1 hPa SW 3.2 km/h 4.8 km/h 62 % 0.0 mm 176 W/m2
20:15 26.7 °C 18.6 °C 1015.1 hPa SW 1.6 km/h 4.8 km/h 61 % 0.0 mm 169 W/m2
20:20 26.8 °C 18.4 °C 1014.8 hPa Calm   4.8 km/h 60 % 0.0 mm 155 W/m2
20:25 26.4 °C 18.8 °C 1014.8 hPa Calm   3.2 km/h 63 % 0.0 mm 132 W/m2
20:30 26.6 °C 19.2 °C 1014.8 hPa Calm   4.8 km/h 64 % 0.0 mm 116 W/m2
20:35 26.6 °C 18.5 °C 1014.8 hPa Calm   4.8 km/h 61 % 0.0 mm 100 W/m2
20:40 27.3 °C 18.1 °C 1014.8 hPa ENE 3.2 km/h 8.0 km/h 57 % 0.0 mm 69 W/m2
20:45 27.1 °C 17.2 °C 1014.8 hPa NE 6.4 km/h 14.5 km/h 55 % 0.0 mm 33 W/m2
20:50 27.3 °C 16.3 °C 1014.8 hPa ENE 1.6 km/h 14.5 km/h 51 % 0.0 mm 32 W/m2
20:55 27.4 °C 16.4 °C 1014.8 hPa ENE 3.2 km/h 19.3 km/h 51 % 0.0 mm 28 W/m2
21:00 27.3 °C 16.0 °C 1014.8 hPa NE 4.8 km/h 19.3 km/h 50 % 0.0 mm 28 W/m2
21:05 27.4 °C 16.0 °C 1014.8 hPa ENE 4.8 km/h 17.7 km/h 50 % 0.0 mm 26 W/m2
21:10 27.3 °C 16.0 °C 1014.8 hPa NE 1.6 km/h 17.7 km/h 50 % 0.0 mm 23 W/m2
21:15 27.1 °C 16.4 °C 1014.8 hPa East 6.4 km/h 16.1 km/h 52 % 0.0 mm 21 W/m2
21:20 27.0 °C 16.0 °C 1014.8 hPa East 6.4 km/h 16.1 km/h 51 % 0.0 mm 19 W/m2
21:25 26.9 °C 16.3 °C 1014.8 hPa ENE 3.2 km/h 14.5 km/h 52 % 0.0 mm 18 W/m2
21:30 26.7 °C 15.7 °C 1014.8 hPa East 9.7 km/h 14.5 km/h 51 % 0.0 mm 16 W/m2
21:35 26.6 °C 15.6 °C 1014.8 hPa ENE 6.4 km/h 16.1 km/h 51 % 0.0 mm 14 W/m2
21:40 26.4 °C 15.2 °C 1014.8 hPa East 3.2 km/h 16.1 km/h 50 % 0.0 mm 12 W/m2
21:45 26.3 °C 15.4 °C 1014.8 hPa ENE 8.0 km/h 16.1 km/h 51 % 0.0 mm 11 W/m2
21:50 26.1 °C 15.5 °C 1014.8 hPa ENE 4.8 km/h 14.5 km/h 52 % 0.0 mm 9 W/m2
21:55 25.9 °C 15.3 °C 1014.8 hPa NE 4.8 km/h 14.5 km/h 52 % 0.0 mm 7 W/m2
22:00 25.6 °C 15.3 °C 1014.8 hPa NNE 1.6 km/h 12.9 km/h 53 % 0.0 mm 5 W/m2
22:05 25.4 °C 15.4 °C 1014.8 hPa NE 3.2 km/h 11.3 km/h 54 % 0.0 mm 0 W/m2
22:10 25.1 °C 15.1 °C 1014.8 hPa ENE 11.3 km/h 11.3 km/h 54 % 0.0 mm 0 W/m2
22:15 24.9 °C 14.9 °C 1015.1 hPa Calm   16.1 km/h 54 % 0.0 mm 0 W/m2
22:20 24.7 °C 15.1 °C 1015.1 hPa ENE 4.8 km/h 16.1 km/h 55 % 0.0 mm 0 W/m2
22:25 24.4 °C 15.0 °C 1015.1 hPa NE 1.6 km/h 9.7 km/h 56 % 0.0 mm 0 W/m2
22:30 24.3 °C 14.9 °C 1015.1 hPa ENE 3.2 km/h 9.7 km/h 56 % 0.0 mm 0 W/m2
22:40 23.4 °C 15.2 °C 1015.1 hPa East 1.6 km/h 8.0 km/h 60 % 0.0 mm 0 W/m2
22:45 23.3 °C 14.9 °C 1015.1 hPa East 4.8 km/h 8.0 km/h 59 % 0.0 mm 0 W/m2
22:50 23.3 °C 14.9 °C 1015.1 hPa Calm   8.0 km/h 59 % 0.0 mm 0 W/m2
22:55 23.2 °C 15.0 °C 1015.1 hPa ENE 4.8 km/h 9.7 km/h 60 % 0.0 mm 0 W/m2
23:00 23.1 °C 14.9 °C 1015.1 hPa ENE 3.2 km/h 9.7 km/h 60 % 0.0 mm 0 W/m2
23:05 22.6 °C 15.0 °C 1015.1 hPa NE 3.2 km/h 6.4 km/h 62 % 0.0 mm 0 W/m2
23:10 22.1 °C 14.9 °C 1015.1 hPa NE 3.2 km/h 6.4 km/h 64 % 0.0 mm 0 W/m2
23:15 21.8 °C 14.9 °C 1015.1 hPa ENE 1.6 km/h 8.0 km/h 65 % 0.0 mm 0 W/m2
23:20 21.7 °C 15.0 °C 1015.1 hPa Calm   8.0 km/h 66 % 0.0 mm 0 W/m2
23:25 21.6 °C 14.9 °C 1015.1 hPa Calm   8.0 km/h 66 % 0.0 mm 0 W/m2
23:30 21.3 °C 14.9 °C 1015.1 hPa East 3.2 km/h 8.0 km/h 67 % 0.0 mm 0 W/m2
23:35 21.6 °C 14.9 °C 1015.1 hPa ENE 4.8 km/h 11.3 km/h 66 % 0.0 mm 0 W/m2
23:40 21.4 °C 15.0 °C 1015.1 hPa ENE 3.2 km/h 11.3 km/h 67 % 0.0 mm 0 W/m2
23:45 21.8 °C 15.1 °C 1015.1 hPa ENE 1.6 km/h 11.3 km/h 66 % 0.0 mm 0 W/m2
23:50 21.9 °C 15.0 °C 1015.1 hPa ENE 1.6 km/h 11.3 km/h 65 % 0.0 mm 0 W/m2
23:55 21.7 °C 15.1 °C 1015.1 hPa ENE 4.8 km/h 12.9 km/h 66 % 0.0 mm 0 W/m2
Avec l'autorisation de Weather Underground - 1.75 mb